Time;durP1;ratioP1;P1;durP2;ratioP2;P2;SDS_P1;SDS_P2;PMS_P1;PMS_P2;Temp;Humidity;BMP_temperature;BMP_pressure;BME280_temperature;BME280_humidity;BME280_pressure;Samples;Min_cycle;Max_cycle;Signal;HPM_P1;HPM_P2
2022/12/10 00:00:45;;;;;;;8.83;4.77;;;;;;;;;;5094965;28;20860;-72
2022/12/10 00:03:19;;;;;;;10.20;5.03;;;;;;;;;;5095725;28;20448;-72
2022/12/10 00:05:46;;;;;;;12.70;6.60;;;;;;;;;;5112614;28;20454;-72
2022/12/10 00:08:16;;;;;;;11.40;7.20;;;;;;;;;;5109940;28;20448;-72
2022/12/10 00:10:59;;;;;;;16.70;5.80;;;;;;;;;;5100100;28;20441;-71
2022/12/10 00:13:37;;;;;;;16.10;6.50;;;;;;;;;;5096143;28;20484;-72
2022/12/10 00:16:06;;;;;;;13.70;5.10;;;;;;;;;;5095051;28;20457;-73
2022/12/10 00:18:36;;;;;;;14.03;7.93;;;;;;;;;;5094992;28;20463;-72
2022/12/10 00:21:05;;;;;;;15.63;6.30;;;;;;;;;;5095912;28;21057;-72
2022/12/10 00:23:38;;;;;;;14.57;7.00;;;;;;;;;;5103843;28;20534;-71
2022/12/10 00:26:14;;;;;;;13.10;6.27;;;;;;;;;;5104263;28;20443;-72
2022/12/10 00:28:43;;;;;;;17.50;6.67;;;;;;;;;;5094482;28;20534;-71
2022/12/10 00:31:21;;;;;;;14.70;6.40;;;;;;;;;;5093765;28;20447;-72
2022/12/10 00:33:59;;;;;;;10.97;5.00;;;;;;;;;;5094208;28;20489;-71
2022/12/10 00:36:39;;;;;;;14.73;6.97;;;;;;;;;;5095157;28;20478;-71
2022/12/10 00:39:06;;;;;;;15.40;6.87;;;;;;;;;;5092457;28;20461;-71
2022/12/10 00:41:36;;;;;;;16.77;7.13;;;;;;;;;;5094231;28;20770;-71
2022/12/10 00:44:04;;;;;;;12.23;6.63;;;;;;;;;;5095156;28;20452;-71
2022/12/10 00:46:32;;;;;;;12.60;5.80;;;;;;;;;;5094812;28;20481;-71
2022/12/10 00:49:05;;;;;;;15.37;6.70;;;;;;;;;;5094259;28;20548;-72
2022/12/10 00:51:33;;;;;;;17.83;7.17;;;;;;;;;;5094644;28;20467;-72
2022/12/10 00:54:06;;;;;;;11.10;5.40;;;;;;;;;;5094667;28;20527;-71
2022/12/10 00:56:37;;;;;;;11.63;6.43;;;;;;;;;;5094335;28;20856;-71
2022/12/10 00:59:07;;;;;;;14.03;5.67;;;;;;;;;;5094715;28;20761;-72
2022/12/10 01:01:37;;;;;;;13.10;6.40;;;;;;;;;;5096919;28;20909;-71
2022/12/10 01:04:09;;;;;;;9.60;5.30;;;;;;;;;;5099231;28;20475;-71
2022/12/10 01:06:39;;;;;;;9.90;5.97;;;;;;;;;;5098757;28;20455;-71
2022/12/10 01:09:09;;;;;;;8.83;5.03;;;;;;;;;;5099596;28;20715;-71
2022/12/10 01:11:38;;;;;;;14.43;5.47;;;;;;;;;;5109480;28;20516;-72
2022/12/10 01:14:09;;;;;;;15.27;7.53;;;;;;;;;;5098647;28;20860;-72
2022/12/10 01:16:39;;;;;;;14.10;6.67;;;;;;;;;;5097533;28;20701;-72
2022/12/10 01:19:12;;;;;;;18.43;7.57;;;;;;;;;;5098714;28;20455;-71
2022/12/10 01:21:40;;;;;;;14.70;6.93;;;;;;;;;;5098270;28;20578;-71
2022/12/10 01:24:10;;;;;;;17.20;8.03;;;;;;;;;;5098872;28;20458;-73
2022/12/10 01:26:38;;;;;;;11.10;6.00;;;;;;;;;;5098146;28;20463;-71
2022/12/10 01:29:13;;;;;;;8.30;4.40;;;;;;;;;;5098849;28;20475;-71
2022/12/10 01:31:41;;;;;;;19.33;6.23;;;;;;;;;;5098020;28;20738;-71
2022/12/10 01:34:18;;;;;;;6.43;2.90;;;;;;;;;;5098839;28;20520;-71
2022/12/10 01:36:53;;;;;;;6.47;4.10;;;;;;;;;;5101586;28;20621;-72
2022/12/10 01:39:24;;;;;;;7.10;3.80;;;;;;;;;;5113334;28;20846;-71
2022/12/10 01:41:59;;;;;;;6.53;3.50;;;;;;;;;;5116961;28;20580;-71
2022/12/10 01:44:48;;;;;;;11.00;4.63;;;;;;;;;;5111492;28;20736;-72
2022/12/10 01:47:21;;;;;;;9.80;4.97;;;;;;;;;;5119135;28;20465;-71
2022/12/10 01:49:55;;;;;;;10.33;5.00;;;;;;;;;;5119903;28;20450;-72
2022/12/10 01:52:23;;;;;;;9.47;3.87;;;;;;;;;;5118533;28;20465;-72
2022/12/10 01:55:03;;;;;;;8.70;4.20;;;;;;;;;;5118891;28;20482;-70
2022/12/10 01:57:40;;;;;;;8.20;4.07;;;;;;;;;;5118604;28;20454;-71
2022/12/10 02:00:24;;;;;;;11.73;4.40;;;;;;;;;;5118767;28;20446;-73
2022/12/10 02:03:09;;;;;;;9.50;4.10;;;;;;;;;;5118110;28;20482;-72
2022/12/10 02:05:51;;;;;;;11.40;4.83;;;;;;;;;;5117884;28;20561;-72
2022/12/10 02:08:24;;;;;;;9.93;4.70;;;;;;;;;;5117534;28;20515;-72
2022/12/10 02:11:00;;;;;;;9.90;5.23;;;;;;;;;;5097661;28;20524;-72
2022/12/10 02:13:38;;;;;;;8.70;5.10;;;;;;;;;;5097498;28;20455;-71
2022/12/10 02:16:16;;;;;;;7.43;3.90;;;;;;;;;;5103484;28;20536;-71
2022/12/10 02:18:48;;;;;;;6.00;3.40;;;;;;;;;;5117786;28;20474;-71
2022/12/10 02:21:18;;;;;;;8.57;3.50;;;;;;;;;;5118241;28;20577;-71
2022/12/10 02:23:48;;;;;;;7.77;4.00;;;;;;;;;;5117730;28;20451;-71
2022/12/10 02:26:21;;;;;;;4.67;2.60;;;;;;;;;;5104287;28;20871;-71
2022/12/10 02:28:53;;;;;;;6.93;3.63;;;;;;;;;;5098072;28;20460;-71
2022/12/10 02:31:33;;;;;;;7.13;4.20;;;;;;;;;;5097635;28;20460;-71
2022/12/10 02:34:01;;;;;;;9.57;4.23;;;;;;;;;;5097290;28;20519;-71
2022/12/10 02:36:31;;;;;;;11.10;4.40;;;;;;;;;;5097521;28;20489;-71
2022/12/10 02:38:59;;;;;;;13.77;6.40;;;;;;;;;;5114100;28;20458;-71
2022/12/10 02:41:29;;;;;;;11.33;6.00;;;;;;;;;;5117480;28;20555;-70
2022/12/10 02:43:59;;;;;;;14.93;6.80;;;;;;;;;;5113171;28;20512;-70
2022/12/10 02:46:32;;;;;;;20.37;7.07;;;;;;;;;;5097294;28;20463;-70
2022/12/10 02:49:00;;;;;;;14.10;6.03;;;;;;;;;;5097432;28;20480;-70
2022/12/10 02:51:28;;;;;;;14.07;6.57;;;;;;;;;;5097085;28;20509;-70
2022/12/10 02:54:01;;;;;;;17.50;7.90;;;;;;;;;;5096908;28;20711;-71
2022/12/10 02:56:31;;;;;;;17.80;8.17;;;;;;;;;;5097856;28;20535;-71
2022/12/10 02:59:09;;;;;;;13.93;6.63;;;;;;;;;;5096777;28;20443;-71
2022/12/10 03:01:43;;;;;;;15.00;6.50;;;;;;;;;;5106141;28;20482;-71
2022/12/10 03:04:13;;;;;;;17.43;7.13;;;;;;;;;;5117705;28;20446;-71
2022/12/10 03:06:44;;;;;;;14.07;6.80;;;;;;;;;;5116939;28;20450;-71
2022/12/10 03:09:14;;;;;;;19.53;8.37;;;;;;;;;;5116836;28;20456;-71
2022/12/10 03:11:43;;;;;;;22.80;10.43;;;;;;;;;;5116536;28;20455;-71
2022/12/10 03:14:13;;;;;;;23.30;9.70;;;;;;;;;;5116814;28;20466;-71
2022/12/10 03:16:44;;;;;;;19.07;8.20;;;;;;;;;;5117190;28;20463;-71
2022/12/10 03:19:16;;;;;;;22.33;8.90;;;;;;;;;;5116822;28;20520;-71
2022/12/10 03:21:46;;;;;;;16.77;8.00;;;;;;;;;;5116230;28;20937;-71
2022/12/10 03:24:15;;;;;;;20.03;9.33;;;;;;;;;;5116258;28;20477;-71
2022/12/10 03:26:43;;;;;;;21.50;10.00;;;;;;;;;;5116523;28;20512;-71
2022/12/10 03:29:16;;;;;;;17.57;8.10;;;;;;;;;;5112037;28;20456;-71
2022/12/10 03:31:49;;;;;;;16.97;9.13;;;;;;;;;;5096181;28;20452;-71
2022/12/10 03:34:19;;;;;;;25.47;11.20;;;;;;;;;;5096806;28;20460;-71
2022/12/10 03:36:47;;;;;;;17.90;9.70;;;;;;;;;;5096381;28;20711;-71
2022/12/10 03:39:17;;;;;;;23.10;10.07;;;;;;;;;;5096568;28;20849;-71
2022/12/10 03:41:45;;;;;;;18.90;8.10;;;;;;;;;;5096633;28;20488;-71
2022/12/10 03:44:13;;;;;;;16.10;7.53;;;;;;;;;;5096210;28;20558;-71
2022/12/10 03:46:41;;;;;;;18.83;10.37;;;;;;;;;;5110944;28;20462;-71
2022/12/10 03:49:10;;;;;;;21.37;9.87;;;;;;;;;;5116666;28;21078;-71
2022/12/10 03:51:38;;;;;;;19.43;9.50;;;;;;;;;;5116430;28;20457;-71
2022/12/10 03:54:07;;;;;;;19.50;8.30;;;;;;;;;;5116540;28;20553;-71
2022/12/10 03:56:37;;;;;;;20.13;9.13;;;;;;;;;;5116290;28;20481;-71
2022/12/10 03:59:06;;;;;;;14.40;8.43;;;;;;;;;;5116554;28;20455;-71
2022/12/10 04:01:34;;;;;;;14.53;7.83;;;;;;;;;;5116135;28;20463;-71
2022/12/10 04:04:01;;;;;;;17.90;8.07;;;;;;;;;;5109718;28;20451;-71
2022/12/10 04:06:31;;;;;;;15.67;7.80;;;;;;;;;;5095732;28;20489;-71
2022/12/10 04:08:59;;;;;;;21.43;9.50;;;;;;;;;;5096001;28;20840;-70
2022/12/10 04:11:26;;;;;;;15.50;7.93;;;;;;;;;;5095367;28;20474;-71
2022/12/10 04:16:39;;;;;;;27.77;10.23;;;;;;;;;;5095808;28;20443;-71
2022/12/10 04:19:08;;;;;;;22.03;9.70;;;;;;;;;;5096004;28;20510;-70
2022/12/10 04:27:11;;;;;;;21.87;10.47;;;;;;;;;;5115875;28;20526;-70
2022/12/10 04:29:39;;;;;;;22.47;9.60;;;;;;;;;;5105996;28;20470;-70
2022/12/10 04:32:09;;;;;;;19.17;9.13;;;;;;;;;;5096082;28;20500;-70
2022/12/10 04:34:37;;;;;;;18.27;9.27;;;;;;;;;;5096386;28;20481;-70
2022/12/10 04:37:06;;;;;;;20.73;9.10;;;;;;;;;;5096851;28;20464;-70
2022/12/10 04:39:34;;;;;;;18.90;9.67;;;;;;;;;;5098250;28;20459;-70
2022/12/10 04:42:03;;;;;;;21.47;9.70;;;;;;;;;;5097491;28;20579;-71
2022/12/10 04:44:30;;;;;;;22.20;9.90;;;;;;;;;;5116236;28;20527;-71
2022/12/10 04:46:58;;;;;;;17.67;9.47;;;;;;;;;;5118043;28;20489;-70
2022/12/10 04:49:25;;;;;;;22.00;9.37;;;;;;;;;;5117092;28;20913;-71
2022/12/10 04:51:55;;;;;;;19.13;10.70;;;;;;;;;;5102258;28;20466;-71
2022/12/10 04:54:24;;;;;;;18.33;9.20;;;;;;;;;;5096808;28;20463;-71
2022/12/10 04:56:51;;;;;;;18.63;8.20;;;;;;;;;;5096904;28;20455;-71
2022/12/10 04:59:19;;;;;;;18.10;10.00;;;;;;;;;;5097475;28;20526;-71
2022/12/10 05:01:47;;;;;;;20.33;9.87;;;;;;;;;;5110660;28;20862;-70
2022/12/10 05:04:15;;;;;;;17.90;9.17;;;;;;;;;;5116407;28;20534;-71
2022/12/10 05:06:44;;;;;;;21.60;9.47;;;;;;;;;;5102140;28;20464;-71
2022/12/10 05:09:12;;;;;;;17.57;7.40;;;;;;;;;;5095940;28;20483;-71
2022/12/10 05:11:42;;;;;;;20.80;8.57;;;;;;;;;;5096115;28;20504;-71
2022/12/10 05:14:12;;;;;;;16.40;8.23;;;;;;;;;;5095439;28;20530;-71
2022/12/10 05:16:40;;;;;;;24.73;9.47;;;;;;;;;;5095085;28;20456;-71
2022/12/10 05:19:07;;;;;;;19.40;9.40;;;;;;;;;;5095439;28;20749;-72
2022/12/10 05:24:20;;;;;;;13.50;7.67;;;;;;;;;;5094012;28;20423;-71
2022/12/10 05:26:51;;;;;;;18.90;10.00;;;;;;;;;;5096665;28;20443;-71
2022/12/10 05:29:19;;;;;;;15.30;7.83;;;;;;;;;;5111260;28;20872;-71
2022/12/10 05:31:46;;;;;;;16.37;7.83;;;;;;;;;;5094644;28;20452;-71
2022/12/10 05:34:14;;;;;;;16.33;6.90;;;;;;;;;;5094763;28;20992;-71
2022/12/10 05:36:42;;;;;;;14.53;6.53;;;;;;;;;;5094403;28;20443;-71
2022/12/10 05:39:11;;;;;;;14.60;7.30;;;;;;;;;;5110530;28;20443;-72
2022/12/10 05:41:40;;;;;;;19.20;8.97;;;;;;;;;;5115009;28;20714;-71
2022/12/10 05:44:11;;;;;;;20.63;9.77;;;;;;;;;;5114939;28;20641;-71
2022/12/10 05:46:42;;;;;;;15.93;8.50;;;;;;;;;;5113677;28;20727;-71
2022/12/10 05:49:09;;;;;;;11.30;6.47;;;;;;;;;;5098864;28;20454;-71
2022/12/10 05:51:40;;;;;;;10.00;5.50;;;;;;;;;;5098597;28;20500;-70
2022/12/10 05:54:09;;;;;;;10.87;6.90;;;;;;;;;;5097957;28;20931;-70
2022/12/10 05:56:37;;;;;;;8.83;5.77;;;;;;;;;;5097540;28;20483;-73
2022/12/10 05:59:05;;;;;;;12.60;7.83;;;;;;;;;;5098370;28;20801;-70
2022/12/10 06:01:38;;;;;;;22.97;8.23;;;;;;;;;;5098305;28;20471;-71
2022/12/10 06:04:06;;;;;;;14.80;7.77;;;;;;;;;;5097840;28;20553;-70
2022/12/10 06:06:35;;;;;;;17.10;8.67;;;;;;;;;;5101099;28;20457;-70
2022/12/10 06:09:03;;;;;;;16.23;8.40;;;;;;;;;;5118830;28;20462;-70
2022/12/10 06:11:31;;;;;;;17.10;8.97;;;;;;;;;;5118543;28;20512;-70
2022/12/10 06:13:59;;;;;;;16.00;8.30;;;;;;;;;;5118593;28;20458;-71
2022/12/10 06:16:27;;;;;;;15.83;8.77;;;;;;;;;;5118291;28;20447;-71
2022/12/10 06:19:00;;;;;;;15.90;7.73;;;;;;;;;;5118182;28;20454;-71
2022/12/10 06:21:27;;;;;;;15.30;7.93;;;;;;;;;;5117021;28;20554;-70
2022/12/10 06:23:55;;;;;;;24.57;12.27;;;;;;;;;;5117418;28;20486;-70
2022/12/10 06:26:24;;;;;;;23.90;9.17;;;;;;;;;;5117965;28;20447;-70
2022/12/10 06:29:01;;;;;;;13.80;8.30;;;;;;;;;;5117573;28;20823;-71
2022/12/10 06:31:29;;;;;;;17.17;8.70;;;;;;;;;;5117997;28;20469;-71
2022/12/10 06:33:57;;;;;;;23.20;9.87;;;;;;;;;;5118490;28;20438;-71
2022/12/10 06:36:26;;;;;;;17.40;9.13;;;;;;;;;;5118269;28;20726;-71
2022/12/10 06:38:53;;;;;;;19.67;8.53;;;;;;;;;;5117540;28;20450;-71
2022/12/10 06:41:21;;;;;;;20.90;8.90;;;;;;;;;;5117923;28;20580;-71
2022/12/10 06:43:49;;;;;;;18.47;8.57;;;;;;;;;;5112996;28;20486;-72
2022/12/10 06:46:18;;;;;;;17.07;9.43;;;;;;;;;;5096536;28;20486;-71
2022/12/10 06:48:46;;;;;;;23.93;9.77;;;;;;;;;;5097048;28;20851;-70
2022/12/10 06:51:14;;;;;;;14.57;7.77;;;;;;;;;;5109448;28;20480;-70
2022/12/10 06:53:44;;;;;;;22.63;8.90;;;;;;;;;;5117437;28;20717;-70
2022/12/10 06:56:13;;;;;;;18.20;9.00;;;;;;;;;;5117658;28;20576;-71
2022/12/10 06:58:42;;;;;;;17.90;7.57;;;;;;;;;;5116807;28;20484;-71
2022/12/10 07:01:10;;;;;;;17.73;10.50;;;;;;;;;;5116664;28;20490;-70
2022/12/10 07:03:39;;;;;;;19.27;8.50;;;;;;;;;;5114419;28;20913;-69
2022/12/10 07:06:07;;;;;;;19.50;9.20;;;;;;;;;;5115458;28;20864;-71
2022/12/10 07:08:40;;;;;;;24.73;9.10;;;;;;;;;;5116817;28;20458;-71
2022/12/10 07:11:10;;;;;;;20.30;9.30;;;;;;;;;;5116314;28;20537;-70
2022/12/10 07:13:38;;;;;;;25.00;8.73;;;;;;;;;;5115650;28;20819;-71
2022/12/10 07:16:13;;;;;;;27.03;8.17;;;;;;;;;;5098279;28;20505;-71
2022/12/10 07:18:41;;;;;;;18.90;8.37;;;;;;;;;;5098860;28;20823;-70
2022/12/10 07:21:19;;;;;;;17.93;11.23;;;;;;;;;;5105855;28;20447;-71
2022/12/10 07:23:47;;;;;;;17.30;10.20;;;;;;;;;;5112419;28;20475;-70
2022/12/10 07:26:16;;;;;;;18.73;7.80;;;;;;;;;;5116262;28;20454;-71
2022/12/10 07:28:44;;;;;;;21.13;9.60;;;;;;;;;;5109527;28;20458;-71
2022/12/10 07:31:11;;;;;;;16.90;7.47;;;;;;;;;;5111913;28;20516;-70
2022/12/10 07:33:42;;;;;;;25.80;8.80;;;;;;;;;;5116639;28;20455;-70
2022/12/10 07:36:12;;;;;;;16.30;8.50;;;;;;;;;;5113901;28;20470;-71
2022/12/10 07:38:40;;;;;;;17.10;9.50;;;;;;;;;;5113897;28;20443;-70
2022/12/10 07:41:08;;;;;;;24.73;9.63;;;;;;;;;;5114305;28;20455;-71
2022/12/10 07:43:39;;;;;;;15.37;8.60;;;;;;;;;;5114986;28;20565;-71
2022/12/10 07:46:07;;;;;;;21.60;8.90;;;;;;;;;;5099473;28;20470;-71
2022/12/10 07:48:35;;;;;;;20.23;11.10;;;;;;;;;;5115494;28;20455;-70
2022/12/10 07:51:03;;;;;;;16.57;8.37;;;;;;;;;;5116156;28;20451;-71
2022/12/10 07:53:31;;;;;;;21.73;9.63;;;;;;;;;;5116269;28;20457;-71
2022/12/10 07:55:59;;;;;;;27.50;10.90;;;;;;;;;;5115270;28;20662;-71
2022/12/10 07:58:28;;;;;;;20.60;10.33;;;;;;;;;;5115321;28;20455;-71
2022/12/10 08:00:59;;;;;;;13.60;8.10;;;;;;;;;;5116559;28;20453;-72
2022/12/10 08:03:27;;;;;;;18.60;8.60;;;;;;;;;;5116781;28;21549;-70
2022/12/10 08:06:04;;;;;;;20.13;10.47;;;;;;;;;;5116548;28;20483;-70
2022/12/10 08:08:32;;;;;;;17.43;8.30;;;;;;;;;;5115230;28;20461;-72
2022/12/10 08:11:01;;;;;;;19.07;9.00;;;;;;;;;;5106787;28;20452;-71
2022/12/10 08:13:31;;;;;;;18.70;8.93;;;;;;;;;;5094140;28;20712;-71
2022/12/10 08:16:03;;;;;;;19.17;8.77;;;;;;;;;;5095036;28;20448;-70
2022/12/10 08:18:35;;;;;;;19.43;9.50;;;;;;;;;;5094233;28;20459;-71
2022/12/10 08:21:05;;;;;;;14.60;8.87;;;;;;;;;;5094904;28;20452;-71
2022/12/10 08:23:33;;;;;;;21.57;7.30;;;;;;;;;;5094944;28;20493;-70
2022/12/10 08:26:03;;;;;;;21.43;8.43;;;;;;;;;;5103690;28;20481;-69
2022/12/10 08:28:31;;;;;;;15.83;8.27;;;;;;;;;;5099493;28;20466;-71
2022/12/10 08:30:59;;;;;;;15.93;8.73;;;;;;;;;;5093985;28;20443;-71
2022/12/10 08:33:29;;;;;;;17.30;7.33;;;;;;;;;;5094168;28;20455;-70
2022/12/10 08:35:59;;;;;;;15.63;8.17;;;;;;;;;;5094188;28;20544;-70
2022/12/10 08:38:27;;;;;;;22.50;8.77;;;;;;;;;;5095527;28;20787;-70
2022/12/10 08:40:55;;;;;;;15.73;8.40;;;;;;;;;;5096014;28;20461;-71
2022/12/10 08:43:24;;;;;;;23.63;11.23;;;;;;;;;;5108167;28;20474;-71
2022/12/10 08:45:52;;;;;;;21.00;9.37;;;;;;;;;;5098401;28;20447;-70
2022/12/10 08:48:23;;;;;;;18.63;9.90;;;;;;;;;;5094316;28;20452;-70
2022/12/10 08:50:52;;;;;;;20.17;10.07;;;;;;;;;;5113229;28;20892;-70
2022/12/10 08:53:22;;;;;;;17.33;7.53;;;;;;;;;;5108955;28;20442;-71
2022/12/10 08:55:51;;;;;;;18.13;7.90;;;;;;;;;;5108455;28;20454;-70
2022/12/10 08:58:19;;;;;;;18.80;8.80;;;;;;;;;;5102620;28;20820;-70
2022/12/10 09:00:48;;;;;;;15.20;8.97;;;;;;;;;;5113938;28;20453;-71
2022/12/10 09:03:17;;;;;;;14.63;7.93;;;;;;;;;;5103554;28;20891;-71
2022/12/10 09:05:45;;;;;;;16.80;8.70;;;;;;;;;;5097519;28;20471;-71
2022/12/10 09:08:17;;;;;;;16.20;8.50;;;;;;;;;;5094259;28;20455;-71
2022/12/10 09:10:45;;;;;;;13.77;7.73;;;;;;;;;;5108609;28;20453;-70
2022/12/10 09:13:14;;;;;;;23.90;9.63;;;;;;;;;;5113411;28;20459;-69
2022/12/10 09:15:51;;;;;;;21.77;10.90;;;;;;;;;;5096133;28;20614;-70
2022/12/10 09:18:33;;;;;;;15.33;10.30;;;;;;;;;;5096080;28;20452;-70
2022/12/10 09:21:33;;;;;;;17.17;8.87;;;;;;;;;;5095602;28;20459;-70
2022/12/10 09:24:03;;;;;;;18.27;8.53;;;;;;;;;;5103719;28;20485;-70
2022/12/10 09:26:36;;;;;;;17.37;7.70;;;;;;;;;;5103080;28;20465;-70
2022/12/10 09:29:05;;;;;;;19.00;7.90;;;;;;;;;;5112258;28;20463;-70
2022/12/10 09:31:40;;;;;;;20.13;8.30;;;;;;;;;;5109599;28;20452;-70
2022/12/10 09:34:10;;;;;;;17.27;8.37;;;;;;;;;;5100453;28;20455;-70
2022/12/10 09:36:43;;;;;;;17.43;8.80;;;;;;;;;;5118921;28;20515;-72
2022/12/10 09:39:14;;;;;;;17.10;9.63;;;;;;;;;;5119230;28;20478;-71
2022/12/10 09:42:03;;;;;;;16.53;8.37;;;;;;;;;;5117239;28;20502;-71
2022/12/10 09:44:40;;;;;;;15.57;7.53;;;;;;;;;;5118460;28;20551;-69
2022/12/10 09:47:10;;;;;;;13.30;6.40;;;;;;;;;;5119068;28;20903;-71
2022/12/10 09:49:45;;;;;;;14.07;7.90;;;;;;;;;;5099308;28;20455;-71
2022/12/10 09:52:14;;;;;;;16.10;8.73;;;;;;;;;;5114110;28;20454;-70
2022/12/10 09:55:08;;;;;;;16.87;8.73;;;;;;;;;;5104607;28;20515;-71
2022/12/10 09:57:48;;;;;;;13.27;7.17;;;;;;;;;;5098404;28;20463;-70
2022/12/10 10:03:15;;;;;;;17.43;9.43;;;;;;;;;;5097608;28;20463;-71
2022/12/10 10:05:45;;;;;;;16.37;7.80;;;;;;;;;;5117282;28;20468;-70
2022/12/10 10:08:15;;;;;;;17.50;9.40;;;;;;;;;;5119470;28;20474;-71
2022/12/10 10:10:51;;;;;;;11.97;6.50;;;;;;;;;;5117766;28;20469;-70
2022/12/10 10:13:25;;;;;;;12.50;6.90;;;;;;;;;;5120143;28;20488;-70
2022/12/10 10:18:43;;;;;;;13.97;6.50;;;;;;;;;;5113036;28;20817;-71
2022/12/10 10:21:19;;;;;;;13.80;7.17;;;;;;;;;;5118385;28;20450;-71
2022/12/10 10:23:53;;;;;;;14.97;7.73;;;;;;;;;;5103987;28;20953;-70
2022/12/10 10:26:28;;;;;;;13.13;7.90;;;;;;;;;;5098508;28;20840;-70
2022/12/10 10:29:09;;;;;;;16.03;8.80;;;;;;;;;;5099847;28;20990;-71
2022/12/10 10:32:00;;;;;;;15.17;8.27;;;;;;;;;;5102758;28;20487;-71
2022/12/10 10:34:34;;;;;;;14.13;7.00;;;;;;;;;;5098420;28;20771;-70
2022/12/10 10:37:04;;;;;;;16.77;7.10;;;;;;;;;;5106930;28;20510;-70
2022/12/10 10:39:41;;;;;;;12.10;7.60;;;;;;;;;;5103372;28;20741;-71
2022/12/10 10:42:18;;;;;;;17.33;8.17;;;;;;;;;;5098755;28;20756;-71
2022/12/10 10:44:51;;;;;;;13.37;7.30;;;;;;;;;;5115119;28;20562;-72
2022/12/10 10:47:38;;;;;;;9.00;5.93;;;;;;;;;;5111379;28;20945;-71
2022/12/10 10:50:07;;;;;;;10.93;7.77;;;;;;;;;;5109290;28;20476;-72
2022/12/10 10:52:40;;;;;;;14.47;7.30;;;;;;;;;;5114621;28;20458;-70
2022/12/10 10:55:38;;;;;;;18.53;9.00;;;;;;;;;;5117506;28;20831;-70
2022/12/10 10:58:17;;;;;;;13.70;5.87;;;;;;;;;;5117676;28;20483;-71
2022/12/10 11:00:56;;;;;;;12.20;6.47;;;;;;;;;;5103855;28;20878;-69
2022/12/10 11:03:25;;;;;;;9.97;5.67;;;;;;;;;;5110313;28;20810;-71
2022/12/10 11:06:01;;;;;;;18.77;7.80;;;;;;;;;;5103903;28;20486;-71
2022/12/10 11:08:32;;;;;;;13.80;6.73;;;;;;;;;;5107797;28;20459;-70
2022/12/10 11:11:18;;;;;;;13.70;6.73;;;;;;;;;;5100024;28;20451;-72
2022/12/10 11:13:50;;;;;;;14.60;8.03;;;;;;;;;;5098734;28;20543;-72
2022/12/10 11:16:21;;;;;;;12.10;7.53;;;;;;;;;;5098784;28;20436;-71
2022/12/10 11:19:12;;;;;;;19.67;9.00;;;;;;;;;;5109902;28;20459;-71
2022/12/10 11:21:46;;;;;;;21.80;10.50;;;;;;;;;;5113596;28;20761;-71
2022/12/10 11:24:18;;;;;;;25.73;10.97;;;;;;;;;;5117976;28;20481;-71
2022/12/10 11:26:56;;;;;;;13.30;9.53;;;;;;;;;;5118531;28;20451;-71
2022/12/10 11:29:43;;;;;;;12.97;7.30;;;;;;;;;;5102351;28;20471;-70
2022/12/10 11:32:40;;;;;;;15.10;8.23;;;;;;;;;;5111020;28;20481;-70
2022/12/10 11:35:20;;;;;;;18.70;10.50;;;;;;;;;;4996460;28;20904;-70
2022/12/10 11:37:55;;;;;;;17.10;9.93;;;;;;;;;;5022001;28;20867;-72
2022/12/10 11:40:32;;;;;;;15.87;8.73;;;;;;;;;;5099729;28;20467;-70
2022/12/10 11:43:17;;;;;;;14.70;9.20;;;;;;;;;;5103071;28;20581;-70
2022/12/10 11:46:03;;;;;;;12.03;6.73;;;;;;;;;;5108765;27;20785;-70
2022/12/10 11:48:58;;;;;;;15.70;10.13;;;;;;;;;;5102719;28;20563;-71
2022/12/10 11:51:32;;;;;;;17.27;8.30;;;;;;;;;;5115550;28;20455;-70
2022/12/10 11:54:16;;;;;;;17.33;7.50;;;;;;;;;;5114737;27;20462;-70
2022/12/10 11:56:50;;;;;;;17.80;10.37;;;;;;;;;;5095485;28;20463;-70
2022/12/10 11:59:25;;;;;;;16.27;9.57;;;;;;;;;;5102936;27;20450;-70
2022/12/10 12:02:23;;;;;;;11.83;8.10;;;;;;;;;;5113445;28;20542;-70
2022/12/10 12:05:20;;;;;;;11.60;8.07;;;;;;;;;;5097142;28;20487;-72
2022/12/10 12:08:06;;;;;;;17.80;8.07;;;;;;;;;;5109510;27;20546;-70
2022/12/10 12:10:59;;;;;;;14.77;8.73;;;;;;;;;;5096098;28;20500;-70
2022/12/10 12:13:41;;;;;;;12.27;7.97;;;;;;;;;;5091851;28;20462;-72
2022/12/10 12:16:15;;;;;;;12.50;7.47;;;;;;;;;;5102126;27;20501;-70
2022/12/10 12:18:55;;;;;;;16.10;8.47;;;;;;;;;;5108246;27;20450;-70
2022/12/10 12:21:24;;;;;;;25.90;13.43;;;;;;;;;;5116665;27;20470;-70
2022/12/10 12:24:02;;;;;;;20.90;12.03;;;;;;;;;;5106245;28;20896;-71
2022/12/10 12:26:46;;;;;;;17.53;9.13;;;;;;;;;;5096795;28;20474;-71
2022/12/10 12:29:27;;;;;;;18.47;9.67;;;;;;;;;;5096826;28;20469;-71
2022/12/10 12:32:29;;;;;;;15.00;8.70;;;;;;;;;;5098963;28;20451;-70
2022/12/10 12:35:06;;;;;;;18.17;8.20;;;;;;;;;;5117135;28;20474;-70
2022/12/10 12:37:52;;;;;;;13.17;7.50;;;;;;;;;;5110333;28;20466;-71
2022/12/10 12:43:11;;;;;;;14.67;8.57;;;;;;;;;;5105119;28;20563;-71
2022/12/10 12:45:41;;;;;;;11.10;7.27;;;;;;;;;;5096686;28;20479;-71
2022/12/10 12:48:16;;;;;;;15.13;6.90;;;;;;;;;;5097048;28;20791;-70
2022/12/10 12:53:37;;;;;;;12.40;6.80;;;;;;;;;;5115545;28;20546;-69
2022/12/10 12:56:27;;;;;;;17.77;8.30;;;;;;;;;;5105447;28;20493;-71
2022/12/10 12:59:10;;;;;;;9.27;5.87;;;;;;;;;;5111186;28;20453;-71
2022/12/10 13:08:26;;;;;;;19.33;11.43;;;;;;;;;;5016357;28;20549;-71
2022/12/10 13:10:57;;;;;;;13.90;5.47;;;;;;;;;;5121801;27;20451;-71
2022/12/10 13:13:34;;;;;;;7.20;4.10;;;;;;;;;;5120486;27;20850;-70
2022/12/10 13:16:21;;;;;;;14.67;7.90;;;;;;;;;;5102774;28;20447;-69
2022/12/10 13:18:50;;;;;;;14.73;7.00;;;;;;;;;;5104194;28;20462;-70
2022/12/10 13:21:44;;;;;;;14.33;6.57;;;;;;;;;;5109173;28;20469;-69
2022/12/10 13:24:20;;;;;;;11.80;7.27;;;;;;;;;;5073521;28;20471;-71
2022/12/10 13:27:06;;;;;;;16.53;8.47;;;;;;;;;;5121836;27;20491;-70
2022/12/10 13:29:55;;;;;;;13.27;7.17;;;;;;;;;;5103914;28;20453;-71
2022/12/10 13:32:28;;;;;;;18.47;10.50;;;;;;;;;;5109855;27;20451;-71
2022/12/10 13:38:15;;;;;;;15.27;6.40;;;;;;;;;;5069644;28;20719;-70
2022/12/10 13:49:54;;;;;;;15.00;6.77;;;;;;;;;;5100494;28;20517;-71
2022/12/10 13:55:24;;;;;;;13.73;7.20;;;;;;;;;;5097193;28;20464;-70
2022/12/10 13:58:19;;;;;;;12.53;6.40;;;;;;;;;;5098608;28;20466;-70
2022/12/10 14:01:12;;;;;;;11.63;5.70;;;;;;;;;;5057749;28;20514;-72
2022/12/10 14:04:24;;;;;;;13.47;6.40;;;;;;;;;;5099339;28;20462;-71
2022/12/10 14:15:52;;;;;;;12.27;5.20;;;;;;;;;;5105364;28;20564;-70
2022/12/10 14:24:39;;;;;;;;;;;;;;;;;;;;;
2022/12/10 14:27:40;;;;;;;12.60;5.20;;;;;;;;;;5102689;28;20814;-71
2022/12/10 14:30:33;;;;;;;9.97;6.27;;;;;;;;;;5110385;28;20454;-71
2022/12/10 14:33:07;;;;;;;11.37;6.27;;;;;;;;;;5098033;28;20481;-70
2022/12/10 14:35:48;;;;;;;11.77;5.43;;;;;;;;;;5102399;28;20438;-71
2022/12/10 14:38:44;;;;;;;12.07;6.90;;;;;;;;;;5119067;28;20961;-71
2022/12/10 14:44:18;;;;;;;9.77;4.70;;;;;;;;;;5109332;28;20467;-71
2022/12/10 14:46:55;;;;;;;10.10;5.00;;;;;;;;;;5119293;28;20478;-70
2022/12/10 14:49:30;;;;;;;13.90;6.97;;;;;;;;;;5114413;28;20755;-69
2022/12/10 14:52:21;;;;;;;14.20;7.43;;;;;;;;;;5097371;28;20459;-71
2022/12/10 14:54:57;;;;;;;13.17;5.20;;;;;;;;;;5096178;28;20471;-70
2022/12/10 14:57:37;;;;;;;10.23;5.73;;;;;;;;;;5098322;28;20894;-70
2022/12/10 15:00:27;;;;;;;10.73;5.07;;;;;;;;;;5098968;28;20474;-70
2022/12/10 15:03:38;;;;;;;10.73;5.40;;;;;;;;;;5099218;28;20444;-70
2022/12/10 15:10:04;;;;;;;12.37;6.63;;;;;;;;;;5100753;28;20480;-71
2022/12/10 15:12:50;;;;;;;12.17;6.20;;;;;;;;;;5097053;28;20458;-71
2022/12/10 15:15:29;;;;;;;8.90;5.20;;;;;;;;;;5095264;28;20534;-70
2022/12/10 15:18:10;;;;;;;8.77;5.60;;;;;;;;;;5105101;28;20443;-71
2022/12/10 15:20:40;;;;;;;11.07;5.80;;;;;;;;;;5102411;28;20520;-71
2022/12/10 15:23:29;;;;;;;11.63;6.40;;;;;;;;;;5117599;28;21029;-70
2022/12/10 15:26:00;;;;;;;12.20;6.83;;;;;;;;;;5116647;28;20486;-70
2022/12/10 15:28:52;;;;;;;9.90;5.63;;;;;;;;;;5107972;28;21122;-71
2022/12/10 15:34:42;;;;;;;11.43;5.50;;;;;;;;;;5104202;28;20444;-70
2022/12/10 15:37:37;;;;;;;14.57;7.17;;;;;;;;;;5097875;28;20452;-70
2022/12/10 15:40:31;;;;;;;14.20;8.63;;;;;;;;;;5096610;28;20451;-71
2022/12/10 15:43:20;;;;;;;14.20;6.93;;;;;;;;;;5095596;28;20463;-72
2022/12/10 15:46:03;;;;;;;11.30;6.40;;;;;;;;;;5095522;28;20570;-70
2022/12/10 15:48:45;;;;;;;17.27;8.27;;;;;;;;;;5096585;28;20562;-70
2022/12/10 15:51:21;;;;;;;14.37;7.60;;;;;;;;;;5094667;28;20448;-70
2022/12/10 15:54:03;;;;;;;9.93;5.50;;;;;;;;;;5114683;28;20946;-71
2022/12/10 16:00:46;;;;;;;12.57;7.17;;;;;;;;;;5056595;28;20580;-71
2022/12/10 16:03:20;;;;;;;12.00;6.90;;;;;;;;;;5103335;28;20450;-70
2022/12/10 16:05:55;;;;;;;14.50;8.33;;;;;;;;;;5112844;28;20470;-71
2022/12/10 16:08:34;;;;;;;14.53;7.60;;;;;;;;;;5112140;28;20447;-70
2022/12/10 16:11:13;;;;;;;14.13;7.93;;;;;;;;;;5094998;28;20440;-70
2022/12/10 16:13:56;;;;;;;12.23;6.73;;;;;;;;;;5093899;28;20443;-70
2022/12/10 16:16:33;;;;;;;11.30;7.93;;;;;;;;;;5095842;28;20459;-69
2022/12/10 16:19:02;;;;;;;12.03;6.40;;;;;;;;;;5095484;28;20453;-71
2022/12/10 16:21:31;;;;;;;12.60;5.73;;;;;;;;;;5095278;28;20550;-70
2022/12/10 16:24:14;;;;;;;13.20;8.27;;;;;;;;;;5095801;28;20764;-70